createdAt,value
2023-03-24T00:13:06.633Z,96138.63
2023-03-24T00:23:04.768Z,96148.72
2023-03-24T00:27:57.725Z,96145.28
2023-03-24T00:32:50.039Z,96136.13
2023-03-24T00:37:42.806Z,96131.41
2023-03-24T00:42:36.798Z,96117.22
2023-03-24T00:47:28.613Z,96140.16
2023-03-24T00:52:24.910Z,96140.63
2023-03-24T00:57:21.889Z,96075.13
2023-03-24T01:02:14.448Z,96063.03
2023-03-24T01:07:08.704Z,96042.16
2023-03-24T01:12:00.466Z,96025.53
2023-03-24T01:16:53.044Z,96015.53
2023-03-24T01:21:44.783Z,96020.84
2023-03-24T01:26:36.717Z,96027.06
2023-03-24T01:31:28.498Z,96031.84
2023-03-24T01:36:20.310Z,96025.00
2023-03-24T01:41:12.070Z,96022.53
2023-03-24T01:46:14.109Z,96012.34
2023-03-24T01:51:34.748Z,96016.50
2023-03-24T01:56:28.969Z,96023.34
2023-03-24T02:01:21.900Z,96022.97
2023-03-24T02:06:15.908Z,96010.16
2023-03-24T02:16:42.118Z,96019.50
2023-03-24T02:22:27.218Z,96053.63
2023-03-24T02:27:44.050Z,96050.09
2023-03-24T02:33:17.271Z,96047.34
2023-03-24T02:38:34.376Z,96045.69
2023-03-24T02:44:21.661Z,96026.41
2023-03-24T02:49:56.923Z,96040.81
2023-03-24T02:55:22.178Z,96050.31
2023-03-24T03:00:48.144Z,96022.19
2023-03-24T03:05:51.287Z,96041.97
2023-03-24T03:10:48.606Z,96039.78
2023-03-24T03:15:48.367Z,96038.25
2023-03-24T03:20:50.699Z,96016.94
2023-03-24T03:25:51.084Z,96014.06
2023-03-24T03:30:50.903Z,95994.56
2023-03-24T03:35:53.253Z,95991.56
2023-03-24T03:40:59.264Z,95956.56
2023-03-24T03:45:51.183Z,95929.81
2023-03-24T03:50:43.171Z,95939.53
2023-03-24T03:55:36.042Z,95908.56
2023-03-24T04:00:28.341Z,95917.56
2023-03-24T04:05:46.201Z,95918.00
2023-03-24T04:11:16.238Z,95872.63
2023-03-24T04:16:14.016Z,95892.81
2023-03-24T04:21:54.791Z,95891.94
2023-03-24T04:27:21.850Z,95871.00
2023-03-24T04:32:35.270Z,95873.19
2023-03-24T04:37:33.278Z,95892.03
2023-03-24T04:42:37.980Z,95903.78
2023-03-24T04:47:38.391Z,95937.25
2023-03-24T05:02:45.112Z,95962.22
2023-03-24T05:07:36.804Z,95977.94
2023-03-24T05:12:28.516Z,95998.63
2023-03-24T05:17:20.279Z,96004.13
2023-03-24T05:22:12.014Z,96011.53
2023-03-24T05:27:03.722Z,96005.06
2023-03-24T05:31:55.406Z,96007.16
2023-03-24T05:36:47.068Z,96001.03
2023-03-24T05:41:38.768Z,95990.75
2023-03-24T05:46:31.167Z,95995.47
2023-03-24T05:51:23.088Z,95990.28
2023-03-24T05:56:14.753Z,96005.97
2023-03-24T06:01:10.110Z,96028.72
2023-03-24T06:06:01.767Z,96019.31
2023-03-24T06:10:53.687Z,96001.00
2023-03-24T06:15:47.538Z,96000.69
2023-03-24T06:25:47.531Z,96025.81
2023-03-24T06:30:43.669Z,96035.09
2023-03-24T06:35:36.036Z,96041.09
2023-03-24T06:40:27.964Z,96048.53
2023-03-24T06:45:21.803Z,96047.34
2023-03-24T06:50:13.729Z,96035.88
2023-03-24T06:55:06.698Z,96050.59
2023-03-24T06:59:58.688Z,96050.34
2023-03-24T07:04:53.776Z,96082.28
2023-03-24T07:09:45.807Z,96092.56
2023-03-24T07:14:37.481Z,96100.75
2023-03-24T07:19:29.574Z,96122.31
2023-03-24T07:24:24.848Z,96124.75
2023-03-24T07:29:16.554Z,96115.75
2023-03-24T07:34:09.418Z,96118.38
2023-03-24T07:39:02.084Z,96109.69
2023-03-24T07:43:53.808Z,96116.75
2023-03-24T07:53:52.042Z,96130.50
2023-03-24T08:09:00.624Z,96158.53
2023-03-24T08:13:52.999Z,96169.56
2023-03-24T08:18:45.019Z,96168.50
2023-03-24T08:23:37.072Z,96170.38
2023-03-24T08:28:29.977Z,96170.97
2023-03-24T08:33:21.816Z,96168.75
2023-03-24T08:38:16.908Z,96174.75
2023-03-24T08:43:15.891Z,96172.47
2023-03-24T08:48:10.829Z,96196.53
2023-03-24T08:58:20.372Z,96207.88
2023-03-24T09:03:21.833Z,96215.75
2023-03-24T09:08:18.311Z,96209.47
2023-03-24T09:13:10.294Z,96209.25
2023-03-24T09:18:03.586Z,96208.00
2023-03-24T09:22:56.011Z,96209.88
2023-03-24T09:27:48.504Z,96208.81
2023-03-24T09:32:40.594Z,96223.06
2023-03-24T09:37:34.098Z,96228.44
2023-03-24T09:42:33.053Z,96229.38
2023-03-24T09:47:33.822Z,96230.41
2023-03-24T09:52:37.937Z,96221.41
2023-03-24T09:57:48.817Z,96225.69
2023-03-24T10:02:41.404Z,96220.41
2023-03-24T10:07:51.087Z,96202.50
2023-03-24T10:12:49.477Z,96199.81
2023-03-24T10:18:31.228Z,96198.84
2023-03-24T10:23:58.527Z,96192.53
2023-03-24T10:29:00.897Z,96212.25
2023-03-24T10:33:57.149Z,96224.56
2023-03-24T10:38:49.509Z,96236.38
2023-03-24T10:43:42.144Z,96237.38
2023-03-24T10:48:48.287Z,96241.00
2023-03-24T10:53:42.594Z,96233.31
2023-03-24T10:58:46.586Z,96223.16
2023-03-24T11:03:39.082Z,96209.28
2023-03-24T11:08:40.929Z,96220.44
2023-03-24T11:13:34.816Z,96222.03
2023-03-24T11:18:35.230Z,96229.16
2023-03-24T11:23:35.252Z,96215.13
2023-03-24T11:28:37.749Z,96215.16
2023-03-24T11:33:39.628Z,96255.25
2023-03-24T11:38:38.377Z,96264.16
2023-03-24T11:43:33.462Z,96257.31
2023-03-24T11:48:42.021Z,96254.06
2023-03-24T11:53:49.740Z,96247.69
2023-03-24T11:58:57.127Z,96235.06
2023-03-24T12:04:28.345Z,96226.91
2023-03-24T12:09:48.587Z,96236.22
2023-03-24T12:15:17.294Z,96224.44
2023-03-24T12:20:35.861Z,96207.09
2023-03-24T12:26:05.575Z,96213.75
2023-03-24T12:31:34.423Z,96233.59
2023-03-24T12:37:06.484Z,96234.41
2023-03-24T12:42:21.202Z,96222.66
2023-03-24T12:48:00.673Z,96202.00
2023-03-24T12:53:26.854Z,96184.81
2023-03-24T12:58:41.601Z,96185.19
2023-03-24T13:03:53.765Z,96176.47
2023-03-24T13:09:03.487Z,96165.97
2023-03-24T13:14:04.924Z,96180.09
2023-03-24T13:19:03.202Z,96195.16
2023-03-24T13:24:09.501Z,96201.09
2023-03-24T13:29:48.668Z,96191.75
2023-03-24T13:35:09.978Z,96178.41
2023-03-24T13:40:11.819Z,96195.88
2023-03-24T13:45:07.870Z,96200.66
2023-03-24T13:50:07.540Z,96196.13
2023-03-24T13:55:08.232Z,96188.00
2023-03-24T14:00:22.606Z,96195.59
2023-03-24T14:05:26.887Z,96192.59
2023-03-24T14:10:20.592Z,96215.31
2023-03-24T14:15:17.021Z,96220.09
2023-03-24T14:20:11.144Z,96217.63
2023-03-24T14:25:17.606Z,96215.00
2023-03-24T14:41:27.614Z,96199.19
2023-03-24T14:46:22.878Z,96216.50
2023-03-24T14:52:01.799Z,96209.53
2023-03-24T14:56:56.831Z,96204.31
2023-03-24T15:02:00.617Z,96214.41
2023-03-24T15:06:52.432Z,96219.56
2023-03-24T15:11:48.082Z,96219.91
2023-03-24T15:16:39.781Z,96218.63
2023-03-24T15:21:49.867Z,96218.63
2023-03-24T15:26:41.596Z,96213.63
2023-03-24T15:31:33.553Z,96212.47
2023-03-24T15:36:25.586Z,96229.97
2023-03-24T15:41:22.322Z,96234.00
2023-03-24T15:46:31.638Z,96236.44
2023-03-24T15:51:58.267Z,96231.75
2023-03-24T15:57:21.701Z,96222.56
2023-03-24T16:02:39.737Z,96235.00
2023-03-24T16:07:35.581Z,96237.75
2023-03-24T16:12:27.534Z,96251.09
2023-03-24T16:17:19.377Z,96234.94
2023-03-24T16:22:12.417Z,96230.66
2023-03-24T16:27:04.576Z,96218.72
2023-03-24T16:31:57.725Z,96212.75
2023-03-24T16:36:53.630Z,96207.84
2023-03-24T16:41:46.478Z,96211.63
2023-03-24T16:46:40.772Z,96205.38
2023-03-24T16:51:33.025Z,96207.84
2023-03-24T17:01:42.134Z,96219.72
2023-03-24T17:06:33.888Z,96211.94
2023-03-24T17:11:33.585Z,96240.25
2023-03-24T17:16:25.600Z,96243.28
2023-03-24T17:21:19.813Z,96233.56
2023-03-24T17:26:11.756Z,96236.56
2023-03-24T17:31:04.104Z,96244.84
2023-03-24T17:35:56.318Z,96251.47
2023-03-24T17:40:48.367Z,96238.72
2023-03-24T17:45:41.107Z,96249.13
2023-03-24T17:50:33.156Z,96270.56
2023-03-24T17:55:24.821Z,96280.47
2023-03-24T18:00:17.366Z,96273.09
2023-03-24T18:05:11.993Z,96307.69
2023-03-24T18:10:04.914Z,96321.97
2023-03-24T18:14:56.739Z,96310.25
2023-03-24T18:19:48.488Z,96302.41
2023-03-24T18:24:40.271Z,96290.13
2023-03-24T18:29:32.587Z,96280.56
2023-03-24T18:34:24.530Z,96315.19
2023-03-24T18:39:17.296Z,96318.47
2023-03-24T18:49:19.412Z,96203.41
2023-03-24T18:54:13.714Z,96284.75
2023-03-24T18:59:06.526Z,96305.13
2023-03-24T19:09:12.462Z,96316.28
2023-03-24T19:14:04.705Z,96322.00
2023-03-24T19:18:58.584Z,96322.22
2023-03-24T19:23:52.883Z,96331.22
2023-03-24T19:28:48.435Z,96324.03
2023-03-24T19:33:45.104Z,96320.63
2023-03-24T19:38:38.937Z,96320.16
2023-03-24T19:43:30.628Z,96316.84
2023-03-24T19:53:35.735Z,96311.69
2023-03-24T19:58:27.646Z,96306.91
2023-03-24T20:03:19.835Z,96292.38
2023-03-24T20:08:11.705Z,96301.00
2023-03-24T20:13:03.414Z,96309.66
2023-03-24T20:17:55.262Z,96308.72
2023-03-24T20:27:54.297Z,96304.75
2023-03-24T20:32:46.363Z,96304.97
2023-03-24T20:37:38.150Z,96321.69
2023-03-24T20:42:30.068Z,96325.19
2023-03-24T20:47:23.865Z,96324.13
2023-03-24T20:52:16.273Z,96321.94
2023-03-24T20:57:15.568Z,96316.16
2023-03-24T21:02:09.870Z,96322.81
2023-03-24T21:07:01.659Z,96326.69
2023-03-24T21:11:53.995Z,96325.00
2023-03-24T21:16:46.153Z,96336.94
2023-03-24T21:21:39.421Z,96354.00
2023-03-24T21:26:32.449Z,96356.13
2023-03-24T21:31:29.452Z,96370.19
2023-03-24T21:36:23.077Z,96380.00
2023-03-24T21:41:20.655Z,96373.25
2023-03-24T21:46:20.568Z,96375.28
2023-03-24T21:51:14.755Z,96380.22
2023-03-24T21:56:07.041Z,96385.81
2023-03-24T22:00:59.945Z,96382.84
2023-03-24T22:05:56.333Z,96377.25
2023-03-24T22:10:49.563Z,96377.91
2023-03-24T22:15:41.358Z,96372.00
2023-03-24T22:20:33.372Z,96377.59
2023-03-24T22:25:25.098Z,96365.03
2023-03-24T22:30:16.843Z,96368.16
2023-03-24T22:35:09.024Z,96370.22
2023-03-24T22:40:00.702Z,96374.88
2023-03-24T22:44:52.398Z,96381.88
2023-03-24T22:49:44.133Z,96396.97
2023-03-24T22:54:36.028Z,96407.50
2023-03-24T22:59:30.938Z,96419.84
2023-03-24T23:04:23.551Z,96424.09
2023-03-24T23:09:15.534Z,96431.00
2023-03-24T23:19:15.268Z,96410.22
2023-03-24T23:24:07.817Z,96402.97
2023-03-24T23:28:59.545Z,96398.63
2023-03-24T23:33:55.603Z,96398.38
2023-03-24T23:38:50.512Z,96418.97
2023-03-24T23:43:42.375Z,96420.50
2023-03-24T23:48:36.894Z,96418.84
2023-03-24T23:53:30.978Z,96433.28
2023-03-24T23:58:30.722Z,96441.38
